Terminal Aerodrome Forecast
Issued by NWS

Home | Current Version | Previous Version | Text Only | Print | Product List | Glossary On
Versions: 1 2 3 4 5 6 7 8 9 10 11 12 13 14 15 16 17
755
FTUS41 KPBZ 171726
TAFHLG
TAF
KHLG 171726Z 1718/1818 20005KT P6SM OVC200
     FM172100 20006KT 6SM -RA OVC050
     FM180000 20005KT P6SM OVC045
     FM180800 22005KT 5SM -DZ BR OVC015
     FM181400 22006KT 5SM -DZ OVC008=

USA.gov is the U.S. government's official web portal to all federal, state and local government web resources and services.